sensor_id;sensor_type;location;lat;lon;timestamp;P1;durP1;ratioP1;P2;durP2;ratioP2
7823;SDS011;3957;48.61947800;9.05303100;2023-03-11T00:00:44;1.70;;;1.10;;
7823;SDS011;3957;48.61947800;9.05303100;2023-03-11T00:01:45;1.05;;;1.00;;
7823;SDS011;3957;48.61947800;9.05303100;2023-03-11T00:02:46;1.48;;;1.20;;
7823;SDS011;3957;48.61947800;9.05303100;2023-03-11T00:03:47;1.25;;;1.15;;
7823;SDS011;3957;48.61947800;9.05303100;2023-03-11T00:04:48;0.90;;;0.90;;
7823;SDS011;3957;48.61947800;9.05303100;2023-03-11T00:05:48;1.17;;;1.00;;
7823;SDS011;3957;48.61947800;9.05303100;2023-03-11T00:06:50;1.15;;;1.08;;
7823;SDS011;3957;48.61947800;9.05303100;2023-03-11T00:07:50;1.13;;;1.03;;
7823;SDS011;3957;48.61947800;9.05303100;2023-03-11T00:08:51;1.33;;;1.15;;
7823;SDS011;3957;48.61947800;9.05303100;2023-03-11T00:09:51;1.83;;;1.50;;
7823;SDS011;3957;48.61947800;9.05303100;2023-03-11T00:10:53;1.27;;;1.17;;
7823;SDS011;3957;48.61947800;9.05303100;2023-03-11T00:11:54;1.55;;;0.93;;
7823;SDS011;3957;48.61947800;9.05303100;2023-03-11T00:12:55;2.10;;;1.20;;
7823;SDS011;3957;48.61947800;9.05303100;2023-03-11T00:13:56;1.52;;;1.15;;
7823;SDS011;3957;48.61947800;9.05303100;2023-03-11T00:14:57;1.67;;;1.20;;
7823;SDS011;3957;48.61947800;9.05303100;2023-03-11T00:15:58;1.10;;;1.00;;
7823;SDS011;3957;48.61947800;9.05303100;2023-03-11T00:17:00;2.20;;;1.00;;
7823;SDS011;3957;48.61947800;9.05303100;2023-03-11T00:18:00;1.30;;;1.20;;
7823;SDS011;3957;48.61947800;9.05303100;2023-03-11T00:19:01;1.55;;;1.10;;
7823;SDS011;3957;48.61947800;9.05303100;2023-03-11T00:20:02;2.47;;;1.17;;
7823;SDS011;3957;48.61947800;9.05303100;2023-03-11T00:21:03;2.30;;;1.10;;
7823;SDS011;3957;48.61947800;9.05303100;2023-03-11T00:22:04;2.50;;;1.20;;
7823;SDS011;3957;48.61947800;9.05303100;2023-03-11T00:23:05;2.23;;;1.17;;
7823;SDS011;3957;48.61947800;9.05303100;2023-03-11T00:24:06;1.67;;;1.00;;
7823;SDS011;3957;48.61947800;9.05303100;2023-03-11T00:25:08;1.50;;;1.10;;
7823;SDS011;3957;48.61947800;9.05303100;2023-03-11T00:26:09;1.20;;;1.10;;
7823;SDS011;3957;48.61947800;9.05303100;2023-03-11T00:27:10;2.10;;;1.20;;
7823;SDS011;3957;48.61947800;9.05303100;2023-03-11T00:28:10;1.20;;;1.10;;
7823;SDS011;3957;48.61947800;9.05303100;2023-03-11T00:29:12;2.45;;;1.30;;
7823;SDS011;3957;48.61947800;9.05303100;2023-03-11T00:30:14;1.40;;;1.30;;
7823;SDS011;3957;48.61947800;9.05303100;2023-03-11T00:31:16;1.88;;;1.30;;
7823;SDS011;3957;48.61947800;9.05303100;2023-03-11T00:32:18;1.27;;;1.17;;
7823;SDS011;3957;48.61947800;9.05303100;2023-03-11T00:33:18;2.50;;;1.30;;
7823;SDS011;3957;48.61947800;9.05303100;2023-03-11T00:34:18;1.30;;;1.17;;
7823;SDS011;3957;48.61947800;9.05303100;2023-03-11T00:35:20;3.27;;;1.10;;
7823;SDS011;3957;48.61947800;9.05303100;2023-03-11T00:36:25;1.30;;;1.20;;
7823;SDS011;3957;48.61947800;9.05303100;2023-03-11T00:37:30;1.35;;;1.25;;
7823;SDS011;3957;48.61947800;9.05303100;2023-03-11T00:38:31;1.42;;;1.33;;
7823;SDS011;3957;48.61947800;9.05303100;2023-03-11T00:39:32;1.20;;;1.10;;
7823;SDS011;3957;48.61947800;9.05303100;2023-03-11T00:40:33;1.90;;;1.42;;
7823;SDS011;3957;48.61947800;9.05303100;2023-03-11T00:41:35;2.03;;;1.27;;
7823;SDS011;3957;48.61947800;9.05303100;2023-03-11T00:42:36;1.90;;;1.20;;
7823;SDS011;3957;48.61947800;9.05303100;2023-03-11T00:43:36;1.43;;;1.33;;
7823;SDS011;3957;48.61947800;9.05303100;2023-03-11T00:44:37;1.23;;;1.13;;
7823;SDS011;3957;48.61947800;9.05303100;2023-03-11T00:45:38;2.92;;;1.48;;
7823;SDS011;3957;48.61947800;9.05303100;2023-03-11T00:46:39;2.08;;;1.20;;
7823;SDS011;3957;48.61947800;9.05303100;2023-03-11T00:47:39;1.70;;;1.30;;
7823;SDS011;3957;48.61947800;9.05303100;2023-03-11T00:48:40;1.63;;;1.30;;
7823;SDS011;3957;48.61947800;9.05303100;2023-03-11T00:49:40;1.27;;;1.17;;
7823;SDS011;3957;48.61947800;9.05303100;2023-03-11T00:50:42;1.40;;;1.30;;
7823;SDS011;3957;48.61947800;9.05303100;2023-03-11T00:51:42;2.05;;;1.30;;
7823;SDS011;3957;48.61947800;9.05303100;2023-03-11T00:52:44;1.80;;;1.40;;
7823;SDS011;3957;48.61947800;9.05303100;2023-03-11T00:53:46;1.40;;;1.30;;
7823;SDS011;3957;48.61947800;9.05303100;2023-03-11T00:54:46;1.42;;;1.33;;
7823;SDS011;3957;48.61947800;9.05303100;2023-03-11T00:55:47;1.25;;;1.15;;
7823;SDS011;3957;48.61947800;9.05303100;2023-03-11T00:56:48;1.40;;;1.10;;
7823;SDS011;3957;48.61947800;9.05303100;2023-03-11T00:57:55;1.83;;;1.30;;
7823;SDS011;3957;48.61947800;9.05303100;2023-03-11T00:59:00;2.80;;;1.50;;
7823;SDS011;3957;48.61947800;9.05303100;2023-03-11T01:00:00;2.75;;;1.65;;
7823;SDS011;3957;48.61947800;9.05303100;2023-03-11T01:01:05;1.90;;;1.40;;
7823;SDS011;3957;48.61947800;9.05303100;2023-03-11T01:02:10;2.90;;;1.42;;
7823;SDS011;3957;48.61947800;9.05303100;2023-03-11T01:03:10;1.30;;;1.20;;
7823;SDS011;3957;48.61947800;9.05303100;2023-03-11T01:04:11;1.63;;;1.40;;
7823;SDS011;3957;48.61947800;9.05303100;2023-03-11T01:05:12;1.42;;;1.30;;
7823;SDS011;3957;48.61947800;9.05303100;2023-03-11T01:06:14;1.95;;;1.55;;
7823;SDS011;3957;48.61947800;9.05303100;2023-03-11T01:07:14;2.38;;;1.27;;
7823;SDS011;3957;48.61947800;9.05303100;2023-03-11T01:08:14;4.43;;;1.40;;
7823;SDS011;3957;48.61947800;9.05303100;2023-03-11T01:09:15;1.50;;;1.40;;
7823;SDS011;3957;48.61947800;9.05303100;2023-03-11T01:10:16;1.60;;;1.42;;
7823;SDS011;3957;48.61947800;9.05303100;2023-03-11T01:11:18;1.30;;;1.10;;
7823;SDS011;3957;48.61947800;9.05303100;2023-03-11T01:12:19;1.98;;;1.30;;
7823;SDS011;3957;48.61947800;9.05303100;2023-03-11T01:13:19;1.83;;;1.53;;
7823;SDS011;3957;48.61947800;9.05303100;2023-03-11T01:14:20;1.55;;;1.40;;
7823;SDS011;3957;48.61947800;9.05303100;2023-03-11T01:15:22;2.53;;;1.40;;
7823;SDS011;3957;48.61947800;9.05303100;2023-03-11T01:16:28;1.92;;;1.50;;
7823;SDS011;3957;48.61947800;9.05303100;2023-03-11T01:17:28;1.90;;;1.45;;
7823;SDS011;3957;48.61947800;9.05303100;2023-03-11T01:18:29;1.50;;;1.40;;
7823;SDS011;3957;48.61947800;9.05303100;2023-03-11T01:19:29;1.60;;;1.50;;
7823;SDS011;3957;48.61947800;9.05303100;2023-03-11T01:20:30;1.50;;;1.40;;
7823;SDS011;3957;48.61947800;9.05303100;2023-03-11T01:21:30;1.70;;;1.60;;
7823;SDS011;3957;48.61947800;9.05303100;2023-03-11T01:22:31;1.73;;;1.60;;
7823;SDS011;3957;48.61947800;9.05303100;2023-03-11T01:23:31;1.77;;;1.50;;
7823;SDS011;3957;48.61947800;9.05303100;2023-03-11T01:24:31;1.70;;;1.60;;
7823;SDS011;3957;48.61947800;9.05303100;2023-03-11T01:25:32;1.87;;;1.70;;
7823;SDS011;3957;48.61947800;9.05303100;2023-03-11T01:26:32;2.60;;;1.50;;
7823;SDS011;3957;48.61947800;9.05303100;2023-03-11T01:27:32;3.60;;;2.07;;
7823;SDS011;3957;48.61947800;9.05303100;2023-03-11T01:28:33;1.70;;;1.60;;
7823;SDS011;3957;48.61947800;9.05303100;2023-03-11T01:29:33;2.00;;;1.73;;
7823;SDS011;3957;48.61947800;9.05303100;2023-03-11T01:30:35;2.77;;;1.60;;
7823;SDS011;3957;48.61947800;9.05303100;2023-03-11T01:31:38;2.60;;;2.13;;
7823;SDS011;3957;48.61947800;9.05303100;2023-03-11T01:32:38;2.20;;;1.70;;
7823;SDS011;3957;48.61947800;9.05303100;2023-03-11T01:33:39;1.70;;;1.60;;
7823;SDS011;3957;48.61947800;9.05303100;2023-03-11T01:34:40;2.17;;;1.73;;
7823;SDS011;3957;48.61947800;9.05303100;2023-03-11T01:35:40;1.93;;;1.63;;
7823;SDS011;3957;48.61947800;9.05303100;2023-03-11T01:36:41;1.77;;;1.47;;
7823;SDS011;3957;48.61947800;9.05303100;2023-03-11T01:37:41;2.50;;;1.60;;
7823;SDS011;3957;48.61947800;9.05303100;2023-03-11T01:38:42;2.20;;;2.00;;
7823;SDS011;3957;48.61947800;9.05303100;2023-03-11T01:39:43;3.23;;;1.80;;
7823;SDS011;3957;48.61947800;9.05303100;2023-03-11T01:40:44;3.20;;;2.07;;
7823;SDS011;3957;48.61947800;9.05303100;2023-03-11T01:41:47;2.33;;;1.80;;
7823;SDS011;3957;48.61947800;9.05303100;2023-03-11T01:42:48;2.00;;;1.80;;
7823;SDS011;3957;48.61947800;9.05303100;2023-03-11T01:43:49;3.47;;;1.88;;
7823;SDS011;3957;48.61947800;9.05303100;2023-03-11T01:44:55;3.50;;;1.70;;
7823;SDS011;3957;48.61947800;9.05303100;2023-03-11T01:48:05;3.20;;;1.80;;
7823;SDS011;3957;48.61947800;9.05303100;2023-03-11T01:49:08;2.35;;;1.42;;
7823;SDS011;3957;48.61947800;9.05303100;2023-03-11T01:50:11;2.75;;;1.75;;
7823;SDS011;3957;48.61947800;9.05303100;2023-03-11T01:51:13;3.50;;;1.80;;
7823;SDS011;3957;48.61947800;9.05303100;2023-03-11T01:52:16;2.47;;;1.65;;
7823;SDS011;3957;48.61947800;9.05303100;2023-03-11T01:53:22;2.43;;;1.43;;
7823;SDS011;3957;48.61947800;9.05303100;2023-03-11T01:54:25;2.83;;;1.70;;
7823;SDS011;3957;48.61947800;9.05303100;2023-03-11T01:55:28;1.40;;;1.30;;
7823;SDS011;3957;48.61947800;9.05303100;2023-03-11T01:56:30;1.95;;;1.52;;
7823;SDS011;3957;48.61947800;9.05303100;2023-03-11T01:57:32;1.85;;;1.45;;
7823;SDS011;3957;48.61947800;9.05303100;2023-03-11T01:58:34;2.47;;;1.53;;
7823;SDS011;3957;48.61947800;9.05303100;2023-03-11T01:59:39;3.13;;;1.55;;
7823;SDS011;3957;48.61947800;9.05303100;2023-03-11T02:00:43;2.08;;;1.40;;
7823;SDS011;3957;48.61947800;9.05303100;2023-03-11T02:01:48;2.30;;;1.80;;
7823;SDS011;3957;48.61947800;9.05303100;2023-03-11T02:02:55;1.90;;;1.50;;
7823;SDS011;3957;48.61947800;9.05303100;2023-03-11T02:04:01;1.60;;;1.30;;
7823;SDS011;3957;48.61947800;9.05303100;2023-03-11T02:05:02;3.05;;;1.60;;
7823;SDS011;3957;48.61947800;9.05303100;2023-03-11T02:06:08;3.28;;;1.70;;
7823;SDS011;3957;48.61947800;9.05303100;2023-03-11T02:07:11;2.80;;;1.60;;
7823;SDS011;3957;48.61947800;9.05303100;2023-03-11T02:08:13;2.75;;;1.30;;
7823;SDS011;3957;48.61947800;9.05303100;2023-03-11T02:09:13;2.17;;;1.40;;
7823;SDS011;3957;48.61947800;9.05303100;2023-03-11T02:10:13;2.10;;;1.20;;
7823;SDS011;3957;48.61947800;9.05303100;2023-03-11T02:11:16;1.70;;;1.27;;
7823;SDS011;3957;48.61947800;9.05303100;2023-03-11T02:12:21;2.53;;;1.38;;
7823;SDS011;3957;48.61947800;9.05303100;2023-03-11T02:13:22;2.30;;;1.52;;
7823;SDS011;3957;48.61947800;9.05303100;2023-03-11T02:14:23;1.38;;;1.25;;
7823;SDS011;3957;48.61947800;9.05303100;2023-03-11T02:15:26;2.58;;;1.38;;
7823;SDS011;3957;48.61947800;9.05303100;2023-03-11T02:16:27;1.90;;;1.50;;
7823;SDS011;3957;48.61947800;9.05303100;2023-03-11T02:17:27;2.60;;;1.60;;
7823;SDS011;3957;48.61947800;9.05303100;2023-03-11T02:18:30;1.58;;;1.40;;
7823;SDS011;3957;48.61947800;9.05303100;2023-03-11T02:22:14;2.60;;;1.40;;
7823;SDS011;3957;48.61947800;9.05303100;2023-03-11T02:23:17;1.37;;;1.23;;
7823;SDS011;3957;48.61947800;9.05303100;2023-03-11T02:25:59;2.13;;;1.20;;
7823;SDS011;3957;48.61947800;9.05303100;2023-03-11T02:27:10;2.10;;;1.55;;
7823;SDS011;3957;48.61947800;9.05303100;2023-03-11T02:28:13;1.52;;;1.40;;
7823;SDS011;3957;48.61947800;9.05303100;2023-03-11T02:29:14;1.50;;;1.17;;
7823;SDS011;3957;48.61947800;9.05303100;2023-03-11T02:30:16;1.92;;;1.27;;
7823;SDS011;3957;48.61947800;9.05303100;2023-03-11T02:31:18;2.75;;;1.40;;
7823;SDS011;3957;48.61947800;9.05303100;2023-03-11T02:32:19;2.08;;;1.30;;
7823;SDS011;3957;48.61947800;9.05303100;2023-03-11T02:33:20;1.90;;;1.40;;
7823;SDS011;3957;48.61947800;9.05303100;2023-03-11T02:34:25;2.53;;;1.43;;
7823;SDS011;3957;48.61947800;9.05303100;2023-03-11T02:35:29;2.25;;;1.30;;
7823;SDS011;3957;48.61947800;9.05303100;2023-03-11T02:37:34;2.53;;;1.55;;
7823;SDS011;3957;48.61947800;9.05303100;2023-03-11T02:38:38;2.60;;;1.70;;
7823;SDS011;3957;48.61947800;9.05303100;2023-03-11T02:39:42;1.80;;;1.52;;
7823;SDS011;3957;48.61947800;9.05303100;2023-03-11T02:40:53;2.90;;;1.48;;
7823;SDS011;3957;48.61947800;9.05303100;2023-03-11T02:42:01;2.63;;;1.55;;
7823;SDS011;3957;48.61947800;9.05303100;2023-03-11T02:43:06;2.42;;;1.70;;
7823;SDS011;3957;48.61947800;9.05303100;2023-03-11T02:44:12;1.77;;;1.55;;
7823;SDS011;3957;48.61947800;9.05303100;2023-03-11T02:45:15;3.13;;;1.60;;
7823;SDS011;3957;48.61947800;9.05303100;2023-03-11T02:46:18;2.65;;;1.48;;
7823;SDS011;3957;48.61947800;9.05303100;2023-03-11T02:47:19;1.48;;;1.33;;
7823;SDS011;3957;48.61947800;9.05303100;2023-03-11T02:48:20;2.50;;;1.52;;
7823;SDS011;3957;48.61947800;9.05303100;2023-03-11T02:49:21;1.88;;;1.50;;
7823;SDS011;3957;48.61947800;9.05303100;2023-03-11T02:50:22;2.22;;;1.52;;
7823;SDS011;3957;48.61947800;9.05303100;2023-03-11T02:51:24;3.42;;;1.25;;
7823;SDS011;3957;48.61947800;9.05303100;2023-03-11T02:52:26;1.20;;;1.10;;
7823;SDS011;3957;48.61947800;9.05303100;2023-03-11T02:53:29;3.17;;;1.50;;
7823;SDS011;3957;48.61947800;9.05303100;2023-03-11T02:54:34;1.77;;;1.40;;
7823;SDS011;3957;48.61947800;9.05303100;2023-03-11T02:55:35;2.40;;;1.30;;
7823;SDS011;3957;48.61947800;9.05303100;2023-03-11T02:56:35;1.70;;;1.23;;
7823;SDS011;3957;48.61947800;9.05303100;2023-03-11T02:57:35;3.70;;;1.60;;
7823;SDS011;3957;48.61947800;9.05303100;2023-03-11T02:58:37;1.58;;;1.30;;
7823;SDS011;3957;48.61947800;9.05303100;2023-03-11T02:59:38;3.25;;;1.58;;
7823;SDS011;3957;48.61947800;9.05303100;2023-03-11T03:00:38;2.15;;;1.58;;
7823;SDS011;3957;48.61947800;9.05303100;2023-03-11T03:01:41;3.30;;;1.75;;
7823;SDS011;3957;48.61947800;9.05303100;2023-03-11T03:02:41;2.10;;;1.70;;
7823;SDS011;3957;48.61947800;9.05303100;2023-03-11T03:03:43;1.55;;;1.27;;
7823;SDS011;3957;48.61947800;9.05303100;2023-03-11T03:04:43;6.18;;;1.80;;
7823;SDS011;3957;48.61947800;9.05303100;2023-03-11T03:05:44;1.37;;;1.23;;
7823;SDS011;3957;48.61947800;9.05303100;2023-03-11T03:06:45;1.75;;;1.02;;
7823;SDS011;3957;48.61947800;9.05303100;2023-03-11T03:07:46;2.07;;;1.30;;
7823;SDS011;3957;48.61947800;9.05303100;2023-03-11T03:08:47;2.35;;;1.20;;
7823;SDS011;3957;48.61947800;9.05303100;2023-03-11T03:09:48;1.98;;;1.10;;
7823;SDS011;3957;48.61947800;9.05303100;2023-03-11T03:10:48;2.93;;;1.10;;
7823;SDS011;3957;48.61947800;9.05303100;2023-03-11T03:11:49;3.27;;;1.20;;
7823;SDS011;3957;48.61947800;9.05303100;2023-03-11T03:12:49;2.70;;;1.20;;
7823;SDS011;3957;48.61947800;9.05303100;2023-03-11T03:13:50;2.33;;;1.30;;
7823;SDS011;3957;48.61947800;9.05303100;2023-03-11T03:14:50;2.60;;;1.10;;
7823;SDS011;3957;48.61947800;9.05303100;2023-03-11T03:15:51;2.58;;;1.40;;
7823;SDS011;3957;48.61947800;9.05303100;2023-03-11T03:16:52;1.90;;;1.40;;
7823;SDS011;3957;48.61947800;9.05303100;2023-03-11T03:17:53;2.00;;;1.42;;
7823;SDS011;3957;48.61947800;9.05303100;2023-03-11T03:18:53;1.57;;;1.27;;
7823;SDS011;3957;48.61947800;9.05303100;2023-03-11T03:19:54;2.03;;;1.20;;
7823;SDS011;3957;48.61947800;9.05303100;2023-03-11T03:20:54;2.20;;;1.40;;
7823;SDS011;3957;48.61947800;9.05303100;2023-03-11T03:21:54;2.75;;;1.20;;
7823;SDS011;3957;48.61947800;9.05303100;2023-03-11T03:22:56;4.43;;;1.20;;
7823;SDS011;3957;48.61947800;9.05303100;2023-03-11T03:24:01;3.92;;;1.60;;
7823;SDS011;3957;48.61947800;9.05303100;2023-03-11T03:25:03;4.47;;;1.20;;
7823;SDS011;3957;48.61947800;9.05303100;2023-03-11T03:26:04;3.70;;;1.40;;
7823;SDS011;3957;48.61947800;9.05303100;2023-03-11T03:27:08;3.22;;;1.48;;
7823;SDS011;3957;48.61947800;9.05303100;2023-03-11T03:28:09;2.10;;;1.38;;
7823;SDS011;3957;48.61947800;9.05303100;2023-03-11T03:29:12;2.60;;;1.30;;
7823;SDS011;3957;48.61947800;9.05303100;2023-03-11T03:30:13;2.33;;;1.23;;
7823;SDS011;3957;48.61947800;9.05303100;2023-03-11T03:31:14;2.30;;;1.40;;
7823;SDS011;3957;48.61947800;9.05303100;2023-03-11T03:32:16;2.53;;;1.60;;
7823;SDS011;3957;48.61947800;9.05303100;2023-03-11T03:33:16;2.65;;;1.38;;
7823;SDS011;3957;48.61947800;9.05303100;2023-03-11T03:34:18;3.25;;;1.30;;
7823;SDS011;3957;48.61947800;9.05303100;2023-03-11T03:35:18;3.17;;;1.33;;
7823;SDS011;3957;48.61947800;9.05303100;2023-03-11T03:36:41;2.03;;;1.50;;
7823;SDS011;3957;48.61947800;9.05303100;2023-03-11T03:37:42;2.30;;;1.20;;
7823;SDS011;3957;48.61947800;9.05303100;2023-03-11T03:38:42;2.37;;;1.40;;
7823;SDS011;3957;48.61947800;9.05303100;2023-03-11T03:39:43;3.70;;;1.50;;
7823;SDS011;3957;48.61947800;9.05303100;2023-03-11T03:40:45;1.90;;;1.40;;
7823;SDS011;3957;48.61947800;9.05303100;2023-03-11T03:41:49;4.10;;;1.40;;
7823;SDS011;3957;48.61947800;9.05303100;2023-03-11T03:42:50;3.23;;;1.30;;
7823;SDS011;3957;48.61947800;9.05303100;2023-03-11T03:43:50;2.37;;;1.30;;
7823;SDS011;3957;48.61947800;9.05303100;2023-03-11T03:44:51;2.80;;;1.30;;
7823;SDS011;3957;48.61947800;9.05303100;2023-03-11T03:45:59;2.35;;;1.20;;
7823;SDS011;3957;48.61947800;9.05303100;2023-03-11T03:47:05;2.30;;;1.60;;
7823;SDS011;3957;48.61947800;9.05303100;2023-03-11T03:48:07;3.15;;;1.30;;
7823;SDS011;3957;48.61947800;9.05303100;2023-03-11T03:49:12;4.30;;;1.40;;
7823;SDS011;3957;48.61947800;9.05303100;2023-03-11T03:50:12;2.57;;;1.43;;
7823;SDS011;3957;48.61947800;9.05303100;2023-03-11T03:51:17;3.60;;;1.50;;
7823;SDS011;3957;48.61947800;9.05303100;2023-03-11T03:52:35;2.10;;;1.30;;
7823;SDS011;3957;48.61947800;9.05303100;2023-03-11T03:53:36;3.17;;;1.47;;
7823;SDS011;3957;48.61947800;9.05303100;2023-03-11T03:54:37;4.65;;;1.40;;
7823;SDS011;3957;48.61947800;9.05303100;2023-03-11T03:55:37;4.43;;;1.80;;
7823;SDS011;3957;48.61947800;9.05303100;2023-03-11T03:56:37;2.55;;;1.30;;
7823;SDS011;3957;48.61947800;9.05303100;2023-03-11T03:57:38;3.03;;;1.40;;
7823;SDS011;3957;48.61947800;9.05303100;2023-03-11T03:58:40;4.45;;;1.42;;
7823;SDS011;3957;48.61947800;9.05303100;2023-03-11T03:59:40;2.65;;;1.30;;
7823;SDS011;3957;48.61947800;9.05303100;2023-03-11T04:00:41;2.88;;;1.15;;
7823;SDS011;3957;48.61947800;9.05303100;2023-03-11T04:01:41;1.25;;;1.15;;
7823;SDS011;3957;48.61947800;9.05303100;2023-03-11T04:02:42;1.73;;;1.30;;
7823;SDS011;3957;48.61947800;9.05303100;2023-03-11T04:03:51;2.35;;;1.30;;
7823;SDS011;3957;48.61947800;9.05303100;2023-03-11T04:04:52;1.60;;;1.07;;
7823;SDS011;3957;48.61947800;9.05303100;2023-03-11T04:05:52;2.03;;;1.20;;
7823;SDS011;3957;48.61947800;9.05303100;2023-03-11T04:06:53;1.65;;;1.17;;
7823;SDS011;3957;48.61947800;9.05303100;2023-03-11T04:07:53;1.53;;;1.20;;
7823;SDS011;3957;48.61947800;9.05303100;2023-03-11T04:08:55;5.72;;;1.30;;
7823;SDS011;3957;48.61947800;9.05303100;2023-03-11T04:10:00;3.97;;;1.38;;
7823;SDS011;3957;48.61947800;9.05303100;2023-03-11T04:11:02;2.65;;;1.15;;
7823;SDS011;3957;48.61947800;9.05303100;2023-03-11T04:12:05;1.75;;;1.20;;
7823;SDS011;3957;48.61947800;9.05303100;2023-03-11T04:13:07;3.63;;;1.35;;
7823;SDS011;3957;48.61947800;9.05303100;2023-03-11T04:14:07;5.73;;;1.50;;
7823;SDS011;3957;48.61947800;9.05303100;2023-03-11T04:15:14;2.60;;;1.38;;
7823;SDS011;3957;48.61947800;9.05303100;2023-03-11T04:16:18;2.70;;;1.10;;
7823;SDS011;3957;48.61947800;9.05303100;2023-03-11T04:17:21;3.38;;;1.48;;
7823;SDS011;3957;48.61947800;9.05303100;2023-03-11T04:18:22;2.80;;;1.30;;
7823;SDS011;3957;48.61947800;9.05303100;2023-03-11T04:19:23;2.97;;;1.20;;
7823;SDS011;3957;48.61947800;9.05303100;2023-03-11T04:20:24;2.20;;;1.20;;
7823;SDS011;3957;48.61947800;9.05303100;2023-03-11T04:21:26;2.47;;;1.48;;
7823;SDS011;3957;48.61947800;9.05303100;2023-03-11T04:22:28;2.35;;;1.35;;
7823;SDS011;3957;48.61947800;9.05303100;2023-03-11T04:23:28;2.80;;;1.30;;
7823;SDS011;3957;48.61947800;9.05303100;2023-03-11T04:24:29;4.30;;;1.63;;
7823;SDS011;3957;48.61947800;9.05303100;2023-03-11T04:25:29;1.33;;;1.20;;
7823;SDS011;3957;48.61947800;9.05303100;2023-03-11T04:26:30;2.63;;;1.40;;
7823;SDS011;3957;48.61947800;9.05303100;2023-03-11T04:27:30;3.00;;;1.50;;
7823;SDS011;3957;48.61947800;9.05303100;2023-03-11T04:28:31;3.45;;;1.40;;
7823;SDS011;3957;48.61947800;9.05303100;2023-03-11T04:29:32;3.25;;;1.27;;
7823;SDS011;3957;48.61947800;9.05303100;2023-03-11T04:30:32;3.07;;;1.37;;
7823;SDS011;3957;48.61947800;9.05303100;2023-03-11T04:31:34;1.58;;;1.20;;
7823;SDS011;3957;48.61947800;9.05303100;2023-03-11T04:32:38;4.55;;;1.70;;
7823;SDS011;3957;48.61947800;9.05303100;2023-03-11T04:33:39;4.25;;;1.60;;
7823;SDS011;3957;48.61947800;9.05303100;2023-03-11T04:34:42;4.90;;;1.60;;
7823;SDS011;3957;48.61947800;9.05303100;2023-03-11T04:35:43;1.80;;;1.52;;
7823;SDS011;3957;48.61947800;9.05303100;2023-03-11T04:36:44;4.17;;;1.57;;
7823;SDS011;3957;48.61947800;9.05303100;2023-03-11T04:37:46;2.47;;;1.42;;
7823;SDS011;3957;48.61947800;9.05303100;2023-03-11T04:38:47;2.95;;;1.30;;
7823;SDS011;3957;48.61947800;9.05303100;2023-03-11T04:39:49;2.30;;;1.67;;
7823;SDS011;3957;48.61947800;9.05303100;2023-03-11T04:40:50;2.58;;;1.67;;
7823;SDS011;3957;48.61947800;9.05303100;2023-03-11T04:41:51;3.35;;;1.42;;
7823;SDS011;3957;48.61947800;9.05303100;2023-03-11T04:42:55;3.25;;;1.33;;
7823;SDS011;3957;48.61947800;9.05303100;2023-03-11T04:43:55;3.13;;;1.70;;
7823;SDS011;3957;48.61947800;9.05303100;2023-03-11T04:44:57;3.33;;;1.67;;
7823;SDS011;3957;48.61947800;9.05303100;2023-03-11T04:45:59;4.25;;;1.40;;
7823;SDS011;3957;48.61947800;9.05303100;2023-03-11T04:47:00;5.80;;;1.40;;
7823;SDS011;3957;48.61947800;9.05303100;2023-03-11T04:48:00;2.40;;;1.55;;
7823;SDS011;3957;48.61947800;9.05303100;2023-03-11T04:49:01;3.88;;;1.50;;
7823;SDS011;3957;48.61947800;9.05303100;2023-03-11T04:50:02;2.58;;;1.60;;
7823;SDS011;3957;48.61947800;9.05303100;2023-03-11T04:51:04;2.03;;;1.43;;
7823;SDS011;3957;48.61947800;9.05303100;2023-03-11T04:52:04;2.20;;;1.33;;
7823;SDS011;3957;48.61947800;9.05303100;2023-03-11T04:53:05;3.43;;;1.50;;
7823;SDS011;3957;48.61947800;9.05303100;2023-03-11T04:54:05;1.92;;;1.45;;
7823;SDS011;3957;48.61947800;9.05303100;2023-03-11T04:55:06;2.88;;;1.48;;
7823;SDS011;3957;48.61947800;9.05303100;2023-03-11T04:56:08;3.28;;;1.50;;
7823;SDS011;3957;48.61947800;9.05303100;2023-03-11T04:57:10;2.58;;;1.60;;
7823;SDS011;3957;48.61947800;9.05303100;2023-03-11T04:58:14;5.28;;;1.80;;
7823;SDS011;3957;48.61947800;9.05303100;2023-03-11T04:59:14;2.25;;;1.73;;
7823;SDS011;3957;48.61947800;9.05303100;2023-03-11T05:00:17;2.88;;;1.70;;
7823;SDS011;3957;48.61947800;9.05303100;2023-03-11T05:01:23;5.80;;;1.92;;
7823;SDS011;3957;48.61947800;9.05303100;2023-03-11T05:02:24;3.53;;;1.50;;
7823;SDS011;3957;48.61947800;9.05303100;2023-03-11T05:03:28;3.78;;;2.00;;
7823;SDS011;3957;48.61947800;9.05303100;2023-03-11T05:04:29;7.03;;;2.97;;
7823;SDS011;3957;48.61947800;9.05303100;2023-03-11T05:05:29;4.63;;;3.00;;
7823;SDS011;3957;48.61947800;9.05303100;2023-03-11T05:06:29;4.30;;;2.07;;
7823;SDS011;3957;48.61947800;9.05303100;2023-03-11T05:07:30;2.92;;;1.60;;
7823;SDS011;3957;48.61947800;9.05303100;2023-03-11T05:08:31;3.20;;;1.60;;
7823;SDS011;3957;48.61947800;9.05303100;2023-03-11T05:09:33;1.90;;;1.30;;
7823;SDS011;3957;48.61947800;9.05303100;2023-03-11T05:10:34;3.25;;;1.83;;
7823;SDS011;3957;48.61947800;9.05303100;2023-03-11T05:11:37;4.43;;;1.48;;
7823;SDS011;3957;48.61947800;9.05303100;2023-03-11T05:12:38;1.47;;;1.30;;
7823;SDS011;3957;48.61947800;9.05303100;2023-03-11T05:13:38;3.00;;;1.60;;
7823;SDS011;3957;48.61947800;9.05303100;2023-03-11T05:14:39;3.80;;;1.80;;
7823;SDS011;3957;48.61947800;9.05303100;2023-03-11T05:15:39;3.00;;;1.70;;
7823;SDS011;3957;48.61947800;9.05303100;2023-03-11T05:16:41;4.03;;;1.67;;
7823;SDS011;3957;48.61947800;9.05303100;2023-03-11T05:17:41;4.15;;;1.52;;
7823;SDS011;3957;48.61947800;9.05303100;2023-03-11T05:18:42;2.47;;;1.60;;
7823;SDS011;3957;48.61947800;9.05303100;2023-03-11T05:19:44;2.30;;;1.50;;
7823;SDS011;3957;48.61947800;9.05303100;2023-03-11T05:20:52;2.75;;;1.55;;
7823;SDS011;3957;48.61947800;9.05303100;2023-03-11T05:21:57;5.55;;;1.70;;
7823;SDS011;3957;48.61947800;9.05303100;2023-03-11T05:22:59;2.10;;;1.83;;
7823;SDS011;3957;48.61947800;9.05303100;2023-03-11T05:24:02;6.53;;;2.15;;
7823;SDS011;3957;48.61947800;9.05303100;2023-03-11T05:25:03;5.00;;;1.98;;
7823;SDS011;3957;48.61947800;9.05303100;2023-03-11T05:26:04;2.85;;;1.90;;
7823;SDS011;3957;48.61947800;9.05303100;2023-03-11T05:27:06;3.50;;;1.80;;
7823;SDS011;3957;48.61947800;9.05303100;2023-03-11T05:28:07;3.42;;;1.77;;
7823;SDS011;3957;48.61947800;9.05303100;2023-03-11T05:29:12;1.55;;;1.33;;
7823;SDS011;3957;48.61947800;9.05303100;2023-03-11T05:30:13;4.03;;;1.70;;
7823;SDS011;3957;48.61947800;9.05303100;2023-03-11T05:31:16;1.77;;;1.52;;
7823;SDS011;3957;48.61947800;9.05303100;2023-03-11T05:32:16;1.63;;;1.33;;
7823;SDS011;3957;48.61947800;9.05303100;2023-03-11T05:33:19;2.75;;;1.40;;
7823;SDS011;3957;48.61947800;9.05303100;2023-03-11T05:34:20;2.10;;;1.50;;
7823;SDS011;3957;48.61947800;9.05303100;2023-03-11T05:35:21;4.93;;;1.60;;
7823;SDS011;3957;48.61947800;9.05303100;2023-03-11T05:36:21;2.37;;;1.30;;
7823;SDS011;3957;48.61947800;9.05303100;2023-03-11T05:37:21;3.83;;;1.60;;
7823;SDS011;3957;48.61947800;9.05303100;2023-03-11T05:38:25;2.75;;;1.83;;
7823;SDS011;3957;48.61947800;9.05303100;2023-03-11T05:39:26;3.13;;;1.50;;
7823;SDS011;3957;48.61947800;9.05303100;2023-03-11T05:40:26;4.83;;;1.70;;